createdAt,value
2022-09-22T00:01:29.558Z,10.50
2022-09-22T00:04:00.380Z,10.50
2022-09-22T00:06:38.238Z,10.30
2022-09-22T00:09:08.940Z,10.50
2022-09-22T00:11:46.361Z,10.40
2022-09-22T00:14:31.430Z,10.30
2022-09-22T00:17:01.207Z,10.40
2022-09-22T00:19:32.125Z,10.40
2022-09-22T00:21:59.780Z,10.40
2022-09-22T00:24:27.933Z,10.10
2022-09-22T00:26:58.035Z,10.10
2022-09-22T00:29:27.509Z,10.40
2022-09-22T00:31:55.106Z,10.10
2022-09-22T00:34:26.872Z,10.40
2022-09-22T00:36:54.458Z,10.30
2022-09-22T00:39:22.183Z,10.30
2022-09-22T00:41:52.880Z,10.20
2022-09-22T00:44:35.100Z,9.10
2022-09-22T00:47:20.758Z,10.30
2022-09-22T00:49:58.709Z,11.10
2022-09-22T00:52:36.536Z,10.30
2022-09-22T00:55:11.474Z,10.20
2022-09-22T00:57:41.054Z,10.20
2022-09-22T01:00:11.689Z,10.00
2022-09-22T01:02:39.380Z,10.10
2022-09-22T01:05:07.862Z,10.00
2022-09-22T01:07:36.238Z,10.00
2022-09-22T01:10:03.993Z,9.90
2022-09-22T01:12:32.126Z,9.80
2022-09-22T01:15:26.557Z,9.90
2022-09-22T01:18:08.272Z,9.50
2022-09-22T01:20:56.349Z,9.90
2022-09-22T01:23:49.740Z,10.10
2022-09-22T01:26:25.485Z,10.00
2022-09-22T01:29:18.472Z,9.70
2022-09-22T01:32:17.365Z,9.40
2022-09-22T01:35:11.563Z,9.70
2022-09-22T01:38:08.523Z,9.80
2022-09-22T01:40:54.725Z,10.00
2022-09-22T01:43:32.384Z,9.90
2022-09-22T01:46:03.661Z,9.70
2022-09-22T01:48:33.427Z,9.80
2022-09-22T01:51:14.065Z,9.70
2022-09-22T01:53:57.188Z,9.60
2022-09-22T01:56:26.747Z,9.70
2022-09-22T01:59:01.151Z,9.80
2022-09-22T02:01:37.801Z,9.50
2022-09-22T02:04:17.014Z,9.70
2022-09-22T02:06:51.410Z,9.10
2022-09-22T02:09:22.097Z,9.60
2022-09-22T02:11:49.193Z,9.60
2022-09-22T02:16:44.409Z,9.70
2022-09-22T02:19:29.513Z,9.60
2022-09-22T02:21:56.730Z,9.60
2022-09-22T02:24:41.006Z,9.50
2022-09-22T02:27:25.688Z,9.40
2022-09-22T02:30:08.598Z,9.40
2022-09-22T02:32:39.517Z,9.60
2022-09-22T02:35:08.434Z,9.30
2022-09-22T02:38:02.397Z,9.50
2022-09-22T02:40:48.895Z,10.10
2022-09-22T02:43:49.856Z,9.20
2022-09-22T02:46:30.499Z,9.60
2022-09-22T02:49:04.525Z,9.50
2022-09-22T02:51:32.541Z,10.40
2022-09-22T02:53:59.664Z,9.40
2022-09-22T02:56:26.630Z,9.30
2022-09-22T02:58:58.164Z,9.30
2022-09-22T03:01:25.972Z,9.20
2022-09-22T03:03:53.126Z,9.30
2022-09-22T03:06:20.143Z,9.40
2022-09-22T03:08:47.118Z,9.40
2022-09-22T03:11:14.045Z,9.30
2022-09-22T03:13:41.117Z,9.30
2022-09-22T03:16:08.392Z,10.50
2022-09-22T03:18:35.566Z,8.60
2022-09-22T03:21:02.522Z,9.30
2022-09-22T03:23:29.740Z,9.20
2022-09-22T03:25:56.788Z,9.10
2022-09-22T03:28:23.724Z,9.10
2022-09-22T03:30:50.689Z,9.20
2022-09-22T03:33:17.733Z,9.00
2022-09-22T03:35:44.677Z,8.90
2022-09-22T03:38:11.778Z,9.00
2022-09-22T03:40:38.719Z,8.80
2022-09-22T03:43:05.717Z,9.20
2022-09-22T03:45:32.848Z,9.10
2022-09-22T03:48:00.108Z,8.90
2022-09-22T03:50:28.336Z,9.00
2022-09-22T03:52:56.610Z,9.10
2022-09-22T03:55:24.549Z,9.00
2022-09-22T03:57:51.727Z,9.70
2022-09-22T04:00:18.948Z,9.10
2022-09-22T04:02:45.884Z,9.00
2022-09-22T04:05:12.981Z,8.90
2022-09-22T04:07:40.006Z,8.60
2022-09-22T04:10:07.836Z,8.90
2022-09-22T04:12:35.047Z,10.20
2022-09-22T04:15:01.994Z,9.90
2022-09-22T04:17:28.944Z,8.80
2022-09-22T04:19:55.995Z,8.80
2022-09-22T04:22:22.970Z,8.80
2022-09-22T04:24:49.918Z,7.80
2022-09-22T04:27:20.933Z,8.70
2022-09-22T04:29:48.834Z,8.90
2022-09-22T04:32:17.109Z,8.60
2022-09-22T04:34:44.279Z,8.50
2022-09-22T04:37:12.152Z,8.90
2022-09-22T04:39:39.408Z,8.80
2022-09-22T04:42:06.536Z,8.80
2022-09-22T04:44:35.427Z,9.20
2022-09-22T04:47:03.971Z,7.70
2022-09-22T04:49:31.153Z,8.60
2022-09-22T04:51:58.116Z,8.80
2022-09-22T04:54:25.091Z,8.80
2022-09-22T04:56:52.079Z,8.60
2022-09-22T04:59:19.121Z,8.80
2022-09-22T05:01:46.101Z,10.00
2022-09-22T05:04:13.166Z,8.80
2022-09-22T05:06:41.696Z,8.70
2022-09-22T05:09:08.669Z,9.70
2022-09-22T05:11:35.723Z,9.10
2022-09-22T05:14:02.696Z,8.60
2022-09-22T05:16:31.827Z,8.40
2022-09-22T05:18:58.855Z,7.50
2022-09-22T05:21:26.126Z,8.60
2022-09-22T05:23:53.634Z,8.40
2022-09-22T05:26:20.567Z,7.80
2022-09-22T05:28:47.566Z,8.20
2022-09-22T05:31:14.611Z,8.60
2022-09-22T05:33:41.656Z,8.30
2022-09-22T05:36:08.766Z,8.40
2022-09-22T05:41:03.743Z,8.40
2022-09-22T05:43:30.778Z,8.50
2022-09-22T05:45:57.842Z,8.30
2022-09-22T05:48:30.274Z,8.50
2022-09-22T05:50:58.356Z,8.40
2022-09-22T05:55:52.714Z,8.40
2022-09-22T05:58:20.525Z,8.40
2022-09-22T06:00:47.579Z,8.40
2022-09-22T06:03:14.689Z,8.40
2022-09-22T06:05:41.928Z,8.40
2022-09-22T06:08:09.720Z,7.60
2022-09-22T06:10:38.841Z,8.30
2022-09-22T06:13:09.204Z,8.40
2022-09-22T06:15:38.392Z,9.00
2022-09-22T06:18:13.068Z,8.40
2022-09-22T06:20:40.987Z,9.20
2022-09-22T06:23:09.040Z,7.40
2022-09-22T06:25:35.979Z,8.50
2022-09-22T06:28:09.658Z,8.10
2022-09-22T06:30:40.754Z,8.30
2022-09-22T06:33:11.382Z,8.30
2022-09-22T06:35:42.860Z,8.30
2022-09-22T06:38:14.991Z,8.30
2022-09-22T06:40:42.553Z,7.90
2022-09-22T06:43:25.353Z,8.20
2022-09-22T06:45:52.777Z,8.30
2022-09-22T06:48:24.043Z,8.10
2022-09-22T06:50:54.805Z,8.40
2022-09-22T06:53:25.485Z,8.10
2022-09-22T06:55:54.364Z,8.10
2022-09-22T06:58:22.370Z,8.30
2022-09-22T07:03:22.603Z,8.40
2022-09-22T07:06:00.869Z,8.30
2022-09-22T07:08:30.356Z,8.20
2022-09-22T07:11:03.845Z,8.30
2022-09-22T07:13:32.671Z,9.10
2022-09-22T07:16:24.704Z,8.30
2022-09-22T07:18:54.923Z,8.10
2022-09-22T07:21:27.471Z,8.40
2022-09-22T07:23:56.060Z,7.40
2022-09-22T07:26:33.422Z,8.40
2022-09-22T07:29:08.544Z,8.10
2022-09-22T07:31:36.691Z,8.20
2022-09-22T07:34:04.413Z,7.80
2022-09-22T07:36:34.426Z,7.90
2022-09-22T07:39:08.105Z,8.10
2022-09-22T07:41:43.191Z,7.60
2022-09-22T07:44:32.412Z,7.30
2022-09-22T07:47:00.486Z,8.20
2022-09-22T07:49:27.663Z,8.40
2022-09-22T07:51:55.262Z,8.20
2022-09-22T07:54:47.763Z,8.20
2022-09-22T07:57:17.561Z,8.20
2022-09-22T08:02:16.476Z,8.20
2022-09-22T08:04:49.146Z,8.20
2022-09-22T08:09:52.133Z,7.60
2022-09-22T08:14:50.442Z,8.30
2022-09-22T08:17:20.009Z,8.40
2022-09-22T08:24:45.875Z,8.50
2022-09-22T08:27:12.993Z,8.40
2022-09-22T08:34:35.406Z,9.80
2022-09-22T08:37:05.724Z,8.70
2022-09-22T08:39:32.952Z,9.50
2022-09-22T08:42:20.820Z,8.70
2022-09-22T08:44:53.922Z,8.80
2022-09-22T08:47:52.147Z,8.80
2022-09-22T08:50:58.787Z,9.00
2022-09-22T08:53:33.564Z,9.20
2022-09-22T08:56:33.701Z,10.10
2022-09-22T08:59:23.208Z,9.70
2022-09-22T09:02:41.301Z,9.40
2022-09-22T09:05:39.307Z,9.00
2022-09-22T09:08:47.475Z,9.30
2022-09-22T09:12:06.877Z,9.00
2022-09-22T09:15:08.477Z,9.40
2022-09-22T09:17:42.104Z,9.90
2022-09-22T09:20:33.530Z,9.80
2022-09-22T09:23:05.386Z,10.70
2022-09-22T09:25:43.786Z,9.80
2022-09-22T09:28:22.957Z,10.00
2022-09-22T09:30:59.415Z,10.30
2022-09-22T09:33:40.801Z,10.00
2022-09-22T09:36:20.530Z,10.20
2022-09-22T09:39:30.050Z,11.10
2022-09-22T09:42:27.193Z,11.20
2022-09-22T09:45:17.240Z,11.30
2022-09-22T09:48:57.108Z,11.60
2022-09-22T09:55:35.246Z,11.10
2022-09-22T09:58:07.816Z,11.80
2022-09-22T10:00:53.743Z,11.50
2022-09-22T10:03:47.586Z,11.60
2022-09-22T10:06:24.144Z,11.50
2022-09-22T10:11:31.096Z,11.70
2022-09-22T10:13:58.886Z,12.30
2022-09-22T10:16:31.653Z,10.90
2022-09-22T10:18:58.685Z,10.10
2022-09-22T10:21:28.047Z,11.10
2022-09-22T10:23:58.562Z,10.80
2022-09-22T10:26:32.228Z,10.20
2022-09-22T10:29:18.800Z,11.20
2022-09-22T10:32:14.533Z,11.10
2022-09-22T10:34:47.926Z,11.10
2022-09-22T10:37:18.651Z,11.20
2022-09-22T10:39:52.071Z,11.30
2022-09-22T10:42:40.787Z,11.40
2022-09-22T10:45:15.505Z,11.10
2022-09-22T10:47:58.935Z,11.40
2022-09-22T10:50:34.913Z,11.10
2022-09-22T10:53:39.531Z,11.40
2022-09-22T10:56:15.250Z,12.10
2022-09-22T10:59:00.190Z,12.20
2022-09-22T11:02:01.898Z,12.60
2022-09-22T11:04:54.147Z,12.60
2022-09-22T11:07:52.673Z,11.20
2022-09-22T11:10:42.410Z,11.50
2022-09-22T11:13:51.758Z,11.80
2022-09-22T11:17:19.416Z,12.00
2022-09-22T11:20:38.904Z,12.00
2022-09-22T11:23:39.402Z,12.90
2022-09-22T11:26:20.586Z,13.30
2022-09-22T11:29:20.343Z,13.80
2022-09-22T11:32:14.964Z,13.80
2022-09-22T11:35:23.718Z,14.50
2022-09-22T11:38:23.763Z,14.50
2022-09-22T11:41:17.798Z,14.70
2022-09-22T11:44:26.303Z,15.00
2022-09-22T11:47:26.496Z,14.50
2022-09-22T11:50:21.413Z,15.10
2022-09-22T11:53:36.571Z,14.40
2022-09-22T11:56:17.514Z,14.90
2022-09-22T11:58:46.053Z,14.50
2022-09-22T12:01:20.370Z,15.20
2022-09-22T12:03:58.620Z,15.10
2022-09-22T12:06:32.239Z,15.90
2022-09-22T12:09:05.083Z,15.50
2022-09-22T12:11:35.133Z,15.30
2022-09-22T12:14:02.939Z,16.50
2022-09-22T12:16:45.509Z,17.60
2022-09-22T12:19:43.302Z,17.90
2022-09-22T12:22:46.911Z,18.20
2022-09-22T12:25:21.220Z,18.20
2022-09-22T12:28:03.882Z,17.60
2022-09-22T12:30:30.840Z,16.80
2022-09-22T12:32:57.862Z,17.00
2022-09-22T12:35:31.413Z,17.40
2022-09-22T12:38:02.368Z,17.60
2022-09-22T12:40:35.578Z,17.30
2022-09-22T12:43:02.928Z,18.50
2022-09-22T12:45:36.543Z,18.60
2022-09-22T12:48:23.411Z,18.40
2022-09-22T12:50:52.188Z,18.20
2022-09-22T12:53:21.981Z,18.10
2022-09-22T12:55:54.955Z,18.60
2022-09-22T12:58:22.455Z,19.00
2022-09-22T13:00:54.486Z,18.90
2022-09-22T13:03:27.376Z,18.50
2022-09-22T13:05:56.789Z,17.30
2022-09-22T13:08:32.914Z,18.80
2022-09-22T13:11:05.615Z,17.30
2022-09-22T13:13:36.713Z,17.50
2022-09-22T13:16:15.503Z,17.90
2022-09-22T13:18:48.794Z,17.60
2022-09-22T13:21:16.164Z,17.10
2022-09-22T13:23:52.184Z,16.70
2022-09-22T13:26:31.084Z,18.70
2022-09-22T13:29:16.044Z,19.40
2022-09-22T13:31:50.968Z,19.20
2022-09-22T13:34:37.337Z,19.30
2022-09-22T13:37:08.714Z,19.40
2022-09-22T13:39:46.277Z,18.60
2022-09-22T13:42:35.242Z,18.30
2022-09-22T13:45:16.805Z,18.20
2022-09-22T13:47:45.682Z,18.10
2022-09-22T13:50:22.001Z,17.90
2022-09-22T13:52:51.524Z,17.30
2022-09-22T13:55:37.311Z,16.80
2022-09-22T13:58:09.014Z,17.50
2022-09-22T14:01:09.078Z,17.60
2022-09-22T14:03:38.159Z,17.30
2022-09-22T14:06:10.597Z,17.20
2022-09-22T14:08:37.887Z,17.20
2022-09-22T14:11:15.463Z,17.10
2022-09-22T14:14:01.644Z,17.60
2022-09-22T14:17:04.715Z,17.80
2022-09-22T14:19:41.082Z,17.60
2022-09-22T14:22:29.477Z,17.20
2022-09-22T14:25:00.044Z,16.50
2022-09-22T14:27:48.000Z,16.60
2022-09-22T14:30:18.646Z,17.30
2022-09-22T14:32:55.048Z,17.30
2022-09-22T14:35:38.614Z,17.30
2022-09-22T14:38:16.674Z,17.20
2022-09-22T14:40:54.042Z,17.70
2022-09-22T14:43:33.262Z,18.10
2022-09-22T14:46:07.377Z,17.00
2022-09-22T14:48:36.573Z,17.40
2022-09-22T14:51:20.412Z,17.70
2022-09-22T14:53:57.794Z,18.00
2022-09-22T14:56:28.273Z,17.30
2022-09-22T14:59:26.659Z,17.20
2022-09-22T15:02:14.442Z,17.10
2022-09-22T15:04:50.068Z,17.20
2022-09-22T15:07:29.242Z,17.10
2022-09-22T15:10:00.267Z,16.60
2022-09-22T15:12:46.163Z,16.40
2022-09-22T15:15:29.223Z,16.60
2022-09-22T15:18:13.293Z,16.40
2022-09-22T15:20:46.612Z,16.00
2022-09-22T15:23:16.665Z,16.60
2022-09-22T15:25:44.814Z,16.80
2022-09-22T15:28:15.461Z,17.00
2022-09-22T15:30:44.639Z,16.80
2022-09-22T15:33:13.542Z,16.50
2022-09-22T15:35:46.841Z,16.60
2022-09-22T15:38:24.071Z,16.70
2022-09-22T15:40:51.550Z,16.40
2022-09-22T15:43:22.982Z,16.50
2022-09-22T15:45:56.708Z,16.50
2022-09-22T15:48:35.056Z,16.60
2022-09-22T15:51:06.004Z,16.30
2022-09-22T15:53:34.715Z,16.40
2022-09-22T15:56:05.221Z,16.30
2022-09-22T15:58:37.431Z,16.10
2022-09-22T16:01:05.594Z,16.20
2022-09-22T16:03:40.796Z,15.90
2022-09-22T16:06:12.306Z,16.30
2022-09-22T16:08:43.755Z,16.10
2022-09-22T16:11:15.390Z,16.20
2022-09-22T16:13:42.846Z,16.10
2022-09-22T16:16:10.804Z,16.20
2022-09-22T16:18:39.527Z,16.20
2022-09-22T16:21:20.992Z,16.30
2022-09-22T16:23:48.076Z,16.30
2022-09-22T16:26:15.481Z,16.10
2022-09-22T16:28:42.462Z,16.00
2022-09-22T16:31:09.459Z,15.90
2022-09-22T16:33:36.497Z,15.90
2022-09-22T16:36:04.589Z,15.90
2022-09-22T16:38:33.771Z,15.80
2022-09-22T16:41:23.976Z,16.50
2022-09-22T16:43:51.810Z,15.80
2022-09-22T16:46:30.078Z,16.10
2022-09-22T16:49:00.769Z,15.80
2022-09-22T16:51:28.726Z,15.80
2022-09-22T16:53:57.860Z,15.80
2022-09-22T16:56:31.140Z,15.80
2022-09-22T16:59:01.263Z,15.70
2022-09-22T17:01:31.332Z,15.80
2022-09-22T17:03:58.877Z,16.00
2022-09-22T17:06:27.236Z,15.80
2022-09-22T17:08:58.565Z,15.70
2022-09-22T17:11:34.413Z,16.80
2022-09-22T17:14:08.875Z,15.40
2022-09-22T17:16:44.063Z,15.30
2022-09-22T17:19:18.371Z,15.10
2022-09-22T17:21:51.886Z,15.10
2022-09-22T17:24:19.445Z,15.80
2022-09-22T17:26:53.391Z,15.10
2022-09-22T17:29:29.740Z,15.10
2022-09-22T17:32:10.105Z,15.00
2022-09-22T17:34:38.732Z,14.80
2022-09-22T17:37:06.053Z,14.90
2022-09-22T17:39:33.812Z,13.90
2022-09-22T17:42:01.257Z,14.70
2022-09-22T17:44:28.710Z,14.60
2022-09-22T17:47:20.390Z,14.60
2022-09-22T17:50:06.302Z,14.20
2022-09-22T17:52:33.229Z,14.40
2022-09-22T17:55:14.168Z,14.50
2022-09-22T17:57:46.611Z,15.70
2022-09-22T18:00:21.460Z,14.40
2022-09-22T18:02:55.496Z,14.50
2022-09-22T18:05:26.626Z,14.50
2022-09-22T18:07:58.344Z,14.50
2022-09-22T18:10:32.029Z,14.50
2022-09-22T18:12:59.852Z,14.40
2022-09-22T18:15:29.067Z,14.20
2022-09-22T18:17:57.956Z,14.50
2022-09-22T18:20:26.149Z,13.30
2022-09-22T18:22:54.126Z,14.10
2022-09-22T18:25:25.411Z,13.70
2022-09-22T18:27:53.622Z,14.00
2022-09-22T18:30:20.822Z,14.00
2022-09-22T18:32:48.872Z,14.00
2022-09-22T18:35:16.350Z,14.00
2022-09-22T18:37:43.775Z,13.90
2022-09-22T18:40:12.325Z,13.80
2022-09-22T18:42:41.418Z,13.90
2022-09-22T18:45:14.202Z,13.80
2022-09-22T18:47:43.595Z,13.80
2022-09-22T18:50:12.284Z,13.70
2022-09-22T18:52:42.702Z,13.70
2022-09-22T18:55:11.868Z,12.80
2022-09-22T18:57:40.157Z,13.70
2022-09-22T19:00:08.832Z,13.70
2022-09-22T19:02:35.999Z,13.50
2022-09-22T19:05:03.159Z,13.40
2022-09-22T19:07:42.588Z,13.60
2022-09-22T19:10:22.354Z,13.50
2022-09-22T19:12:50.238Z,13.40
2022-09-22T19:15:19.093Z,13.60
2022-09-22T19:17:49.285Z,13.50
2022-09-22T19:20:21.910Z,12.30
2022-09-22T19:22:50.323Z,13.40
2022-09-22T19:25:18.748Z,13.40
2022-09-22T19:27:46.173Z,13.60
2022-09-22T19:30:13.591Z,13.10
2022-09-22T19:32:41.333Z,13.30
2022-09-22T19:35:09.188Z,12.90
2022-09-22T19:37:36.167Z,12.80
2022-09-22T19:40:08.485Z,12.90
2022-09-22T19:42:40.157Z,12.80
2022-09-22T19:45:08.406Z,13.20
2022-09-22T19:47:35.383Z,13.00
2022-09-22T19:50:02.357Z,13.20
2022-09-22T19:52:29.250Z,13.90
2022-09-22T19:54:56.241Z,13.50
2022-09-22T19:57:23.147Z,13.20
2022-09-22T19:59:50.836Z,13.10
2022-09-22T20:02:17.854Z,13.00
2022-09-22T20:04:45.761Z,13.00
2022-09-22T20:07:12.913Z,12.80
2022-09-22T20:09:39.881Z,12.90
2022-09-22T20:12:07.116Z,12.70
2022-09-22T20:14:34.476Z,12.80
2022-09-22T20:17:05.892Z,12.90
2022-09-22T20:19:42.110Z,12.30
2022-09-22T20:22:42.012Z,13.90
2022-09-22T20:25:28.694Z,14.10
2022-09-22T20:27:56.252Z,12.50
2022-09-22T20:30:23.290Z,12.80
2022-09-22T20:32:51.896Z,12.60
2022-09-22T20:35:21.690Z,15.00
2022-09-22T20:37:48.639Z,12.60
2022-09-22T20:40:20.139Z,12.70
2022-09-22T20:42:48.648Z,12.40
2022-09-22T20:45:15.718Z,12.60
2022-09-22T20:47:42.601Z,12.60
2022-09-22T20:50:11.872Z,12.40
2022-09-22T20:52:41.624Z,12.50
2022-09-22T20:55:10.640Z,12.40
2022-09-22T20:57:38.137Z,13.70
2022-09-22T21:00:06.937Z,12.40
2022-09-22T21:02:35.168Z,12.20
2022-09-22T21:05:02.156Z,11.50
2022-09-22T21:07:31.453Z,12.30
2022-09-22T21:10:16.913Z,12.30
2022-09-22T21:12:44.289Z,12.30
2022-09-22T21:15:11.857Z,12.30
2022-09-22T21:17:43.732Z,11.90
2022-09-22T21:20:10.970Z,12.20
2022-09-22T21:22:37.958Z,12.30
2022-09-22T21:25:05.416Z,12.20
2022-09-22T21:27:32.321Z,11.90
2022-09-22T21:29:59.280Z,12.20
2022-09-22T21:32:26.249Z,12.10
2022-09-22T21:34:53.160Z,12.00
2022-09-22T21:37:20.983Z,12.20
2022-09-22T21:39:47.957Z,11.80
2022-09-22T21:42:15.433Z,12.20
2022-09-22T21:44:42.335Z,11.80
2022-09-22T21:47:09.232Z,11.50
2022-09-22T21:49:36.176Z,12.00
2022-09-22T21:52:03.463Z,11.90
2022-09-22T21:54:31.297Z,12.00
2022-09-22T21:56:58.193Z,11.90
2022-09-22T21:59:25.076Z,12.00
2022-09-22T22:01:52.129Z,12.00
2022-09-22T22:04:19.243Z,11.90
2022-09-22T22:06:46.979Z,11.90
2022-09-22T22:09:20.239Z,11.90
2022-09-22T22:11:58.015Z,11.80
2022-09-22T22:14:32.648Z,11.80
2022-09-22T22:17:02.397Z,11.80
2022-09-22T22:19:29.928Z,11.70
2022-09-22T22:21:56.978Z,11.70
2022-09-22T22:24:28.938Z,11.90
2022-09-22T22:26:58.963Z,11.60
2022-09-22T22:29:28.123Z,11.60
2022-09-22T22:31:55.082Z,11.60
2022-09-22T22:34:27.150Z,11.70
2022-09-22T22:36:55.019Z,11.50
2022-09-22T22:39:22.340Z,11.70
2022-09-22T22:41:49.378Z,11.20
2022-09-22T22:44:17.851Z,11.40
2022-09-22T22:46:45.904Z,11.60
2022-09-22T22:49:12.949Z,11.70
2022-09-22T22:51:42.852Z,11.60
2022-09-22T22:54:11.249Z,11.30
2022-09-22T22:56:42.084Z,11.60
2022-09-22T22:59:09.630Z,11.70
2022-09-22T23:01:36.863Z,11.60
2022-09-22T23:04:07.349Z,11.60
2022-09-22T23:06:37.630Z,11.60
2022-09-22T23:09:08.326Z,11.50
2022-09-22T23:11:39.953Z,12.50
2022-09-22T23:14:11.305Z,11.50
2022-09-22T23:16:42.679Z,11.40
2022-09-22T23:19:13.688Z,11.40
2022-09-22T23:21:40.813Z,11.60
2022-09-22T23:24:08.363Z,11.40
2022-09-22T23:26:37.179Z,11.30
2022-09-22T23:29:05.068Z,11.40
2022-09-22T23:31:32.031Z,11.40
2022-09-22T23:33:59.225Z,9.60
2022-09-22T23:36:28.664Z,11.20
2022-09-22T23:39:04.606Z,10.70
2022-09-22T23:41:34.349Z,11.30
2022-09-22T23:44:02.766Z,11.20
2022-09-22T23:46:29.882Z,11.20
2022-09-22T23:48:56.907Z,11.30
2022-09-22T23:51:24.100Z,11.60
2022-09-22T23:53:51.747Z,11.10
2022-09-22T23:56:19.544Z,11.00
2022-09-22T23:58:46.901Z,12.00
